createdAt,value
2022-08-26T00:00:39.057Z,58.20
2022-08-26T00:03:35.144Z,58.80
2022-08-26T00:06:31.578Z,59.38
2022-08-26T00:09:30.045Z,59.90
2022-08-26T00:12:31.576Z,60.27
2022-08-26T00:15:40.547Z,60.59
2022-08-26T00:18:38.670Z,61.14
2022-08-26T00:21:38.858Z,65.99
2022-08-26T00:24:37.799Z,65.19
2022-08-26T00:27:34.221Z,58.24
2022-08-26T00:30:31.496Z,55.68
2022-08-26T00:33:26.142Z,56.04
2022-08-26T00:36:20.685Z,56.93
2022-08-26T00:39:15.240Z,57.66
2022-08-26T00:42:10.130Z,58.23
2022-08-26T00:45:10.202Z,58.72
2022-08-26T00:48:06.051Z,59.17
2022-08-26T00:51:02.398Z,59.70
2022-08-26T00:54:10.801Z,60.12
2022-08-26T00:57:16.267Z,60.40
2022-08-26T01:00:18.584Z,60.76
2022-08-26T01:03:12.705Z,61.07
2022-08-26T01:06:24.071Z,61.42
2022-08-26T01:09:34.997Z,67.46
2022-08-26T01:12:48.859Z,63.84
2022-08-26T01:15:49.886Z,58.02
2022-08-26T01:18:49.980Z,55.40
2022-08-26T01:21:46.755Z,55.75
2022-08-26T01:24:41.548Z,56.35
2022-08-26T01:27:37.058Z,56.95
2022-08-26T01:30:31.453Z,57.45
2022-08-26T01:33:39.941Z,57.84
2022-08-26T01:36:36.039Z,58.12
2022-08-26T01:39:34.523Z,58.61
2022-08-26T01:42:30.762Z,58.94
2022-08-26T01:45:29.059Z,59.11
2022-08-26T01:48:25.565Z,59.31
2022-08-26T01:51:16.330Z,59.50
2022-08-26T01:54:12.135Z,59.01
2022-08-26T01:57:09.203Z,59.86
2022-08-26T02:00:06.822Z,60.13
2022-08-26T02:03:17.914Z,60.24
2022-08-26T02:06:11.731Z,60.31
2022-08-26T02:09:09.503Z,60.41
2022-08-26T02:12:04.579Z,60.49
2022-08-26T02:15:02.382Z,60.50
2022-08-26T02:18:00.959Z,60.48
2022-08-26T02:20:53.992Z,60.56
2022-08-26T02:23:46.774Z,60.54
2022-08-26T02:26:39.008Z,60.52
2022-08-26T02:29:38.559Z,60.56
2022-08-26T02:32:29.871Z,60.56
2022-08-26T02:35:21.408Z,60.66
2022-08-26T02:38:11.769Z,60.66
2022-08-26T02:41:02.853Z,60.66
2022-08-26T02:43:52.803Z,60.78
2022-08-26T02:46:47.159Z,60.82
2022-08-26T02:49:47.254Z,60.77
2022-08-26T02:52:39.639Z,60.74
2022-08-26T02:55:32.452Z,60.75
2022-08-26T02:58:26.716Z,60.72
2022-08-26T03:01:26.550Z,60.66
2022-08-26T03:04:20.642Z,60.61
2022-08-26T03:07:21.785Z,60.60
2022-08-26T03:10:18.531Z,60.64
2022-08-26T03:13:12.514Z,60.62
2022-08-26T03:16:11.002Z,60.51
2022-08-26T03:19:05.285Z,60.47
2022-08-26T03:22:02.233Z,60.39
2022-08-26T03:24:55.795Z,60.32
2022-08-26T03:27:51.910Z,60.29
2022-08-26T03:30:45.763Z,60.15
2022-08-26T03:33:40.051Z,60.17
2022-08-26T03:36:35.093Z,60.11
2022-08-26T03:39:28.756Z,60.10
2022-08-26T03:42:24.384Z,60.07
2022-08-26T03:45:18.991Z,60.00
2022-08-26T03:48:15.720Z,59.97
2022-08-26T03:51:18.299Z,59.94
2022-08-26T03:54:14.644Z,59.77
2022-08-26T03:57:09.781Z,59.72
2022-08-26T04:00:18.455Z,59.59
2022-08-26T04:03:18.913Z,59.59
2022-08-26T04:06:14.637Z,59.57
2022-08-26T04:09:22.741Z,59.54
2022-08-26T04:12:21.619Z,59.41
2022-08-26T04:15:22.576Z,59.38
2022-08-26T04:18:18.023Z,59.33
2022-08-26T04:21:17.304Z,59.20
2022-08-26T04:24:21.817Z,59.22
2022-08-26T04:27:20.646Z,59.20
2022-08-26T04:30:16.703Z,59.12
2022-08-26T04:33:12.809Z,59.07
2022-08-26T04:36:08.457Z,59.11
2022-08-26T04:39:04.479Z,59.09
2022-08-26T04:41:58.045Z,59.08
2022-08-26T04:44:55.746Z,59.04
2022-08-26T04:47:48.611Z,59.06
2022-08-26T04:50:49.717Z,59.10
2022-08-26T04:53:45.684Z,59.12
2022-08-26T04:56:49.522Z,59.10
2022-08-26T04:59:48.845Z,59.08
2022-08-26T05:02:47.077Z,59.10
2022-08-26T05:05:47.875Z,58.98
2022-08-26T05:08:43.830Z,58.90
2022-08-26T05:11:40.702Z,58.88
2022-08-26T05:14:44.991Z,58.85
2022-08-26T05:17:44.504Z,58.88
2022-08-26T05:20:54.012Z,57.89
2022-08-26T05:23:51.687Z,57.50
2022-08-26T05:26:53.055Z,57.33
2022-08-26T05:29:51.532Z,57.21
2022-08-26T05:32:55.322Z,57.03
2022-08-26T05:35:58.253Z,56.90
2022-08-26T05:38:53.869Z,56.88
2022-08-26T05:41:54.640Z,56.78
2022-08-26T05:44:55.581Z,56.77
2022-08-26T05:47:55.074Z,56.89
2022-08-26T05:50:55.304Z,57.00
2022-08-26T05:54:01.749Z,56.97
2022-08-26T05:57:08.876Z,56.75
2022-08-26T06:00:15.825Z,56.42
2022-08-26T06:03:16.198Z,56.02
2022-08-26T06:06:20.667Z,55.80
2022-08-26T06:09:29.117Z,55.80
2022-08-26T06:12:34.852Z,55.89
2022-08-26T06:15:36.634Z,55.74
2022-08-26T06:18:39.605Z,55.74
2022-08-26T06:21:39.904Z,55.70
2022-08-26T06:25:02.901Z,55.86
2022-08-26T06:28:07.951Z,56.00
2022-08-26T06:31:12.534Z,55.97
2022-08-26T06:34:10.717Z,55.94
2022-08-26T06:37:16.704Z,55.81
2022-08-26T06:40:14.326Z,56.05
2022-08-26T06:43:21.576Z,56.14
2022-08-26T06:46:33.092Z,56.16
2022-08-26T06:49:28.192Z,55.85
2022-08-26T06:52:25.918Z,55.81
2022-08-26T06:55:26.887Z,55.63
2022-08-26T06:58:29.342Z,55.77
2022-08-26T07:01:43.755Z,55.98
2022-08-26T07:04:51.201Z,56.19
2022-08-26T07:07:58.804Z,56.29
2022-08-26T07:11:06.144Z,56.36
2022-08-26T07:14:21.926Z,56.50
2022-08-26T07:17:30.148Z,56.66
2022-08-26T07:20:28.811Z,56.71
2022-08-26T07:23:27.969Z,56.54
2022-08-26T07:26:30.491Z,56.88
2022-08-26T07:29:33.164Z,57.07
2022-08-26T07:32:39.244Z,56.76
2022-08-26T07:35:43.157Z,56.61
2022-08-26T07:38:40.110Z,56.69
2022-08-26T07:41:38.309Z,56.60
2022-08-26T07:44:49.189Z,56.28
2022-08-26T07:47:49.616Z,56.38
2022-08-26T07:50:58.262Z,56.37
2022-08-26T07:54:05.876Z,56.43
2022-08-26T07:57:05.104Z,56.34
2022-08-26T08:00:16.080Z,56.35
2022-08-26T08:03:16.619Z,56.34
2022-08-26T08:06:27.122Z,56.41
2022-08-26T08:09:26.773Z,56.26
2022-08-26T08:12:26.188Z,56.19
2022-08-26T08:15:33.553Z,56.23
2022-08-26T08:18:37.176Z,56.07
2022-08-26T08:21:44.789Z,55.77
2022-08-26T08:24:52.984Z,55.29
2022-08-26T08:28:51.152Z,55.19
2022-08-26T08:32:03.869Z,55.26
2022-08-26T08:35:00.838Z,55.93
2022-08-26T08:38:29.348Z,56.31
2022-08-26T08:42:34.817Z,56.70
2022-08-26T08:45:56.265Z,56.70
2022-08-26T08:49:04.510Z,56.54
2022-08-26T08:52:16.417Z,56.45
2022-08-26T08:55:18.081Z,55.83
2022-08-26T08:58:25.649Z,55.42
2022-08-26T09:01:54.062Z,55.32
2022-08-26T09:05:15.295Z,54.98
2022-08-26T09:08:31.609Z,54.78
2022-08-26T09:11:41.948Z,54.55
2022-08-26T09:14:45.853Z,54.06
2022-08-26T09:17:52.212Z,53.72
2022-08-26T09:20:54.178Z,53.42
2022-08-26T09:24:00.320Z,53.25
2022-08-26T09:27:01.724Z,52.75
2022-08-26T09:29:59.982Z,52.52
2022-08-26T09:33:11.069Z,52.47
2022-08-26T09:36:27.133Z,52.46
2022-08-26T09:39:33.573Z,52.35
2022-08-26T09:42:49.536Z,52.38
2022-08-26T09:46:00.322Z,52.37
2022-08-26T09:49:06.095Z,52.03
2022-08-26T09:52:26.774Z,51.95
2022-08-26T09:55:27.617Z,51.98
2022-08-26T09:58:38.173Z,52.21
2022-08-26T10:01:51.394Z,52.54
2022-08-26T10:05:08.998Z,52.62
2022-08-26T10:08:24.344Z,52.64
2022-08-26T10:11:58.261Z,52.92
2022-08-26T10:14:57.469Z,53.01
2022-08-26T10:17:59.108Z,53.23
2022-08-26T10:21:07.415Z,53.33
2022-08-26T10:24:04.348Z,53.44
2022-08-26T10:27:09.320Z,53.61
2022-08-26T10:30:19.044Z,53.66
2022-08-26T10:33:17.955Z,53.26
2022-08-26T10:36:58.648Z,53.00
2022-08-26T10:40:04.336Z,53.15
2022-08-26T10:43:12.252Z,53.36
2022-08-26T10:46:28.285Z,53.59
2022-08-26T10:49:26.360Z,53.67
2022-08-26T10:52:31.625Z,53.59
2022-08-26T10:55:46.292Z,53.21
2022-08-26T10:58:57.449Z,52.90
2022-08-26T11:01:57.157Z,53.02
2022-08-26T11:04:57.824Z,52.94
2022-08-26T11:08:32.430Z,52.65
2022-08-26T11:11:50.764Z,53.03
2022-08-26T11:14:59.047Z,53.20
2022-08-26T11:18:08.220Z,53.25
2022-08-26T11:22:10.004Z,53.13
2022-08-26T11:25:27.843Z,53.36
2022-08-26T11:28:37.685Z,53.17
2022-08-26T11:31:59.397Z,52.66
2022-08-26T11:35:04.906Z,52.07
2022-08-26T11:38:06.005Z,51.55
2022-08-26T11:41:15.161Z,51.37
2022-08-26T11:44:28.451Z,51.20
2022-08-26T11:47:40.337Z,50.76
2022-08-26T11:50:42.525Z,50.41
2022-08-26T11:53:47.086Z,50.19
2022-08-26T11:56:48.145Z,50.27
2022-08-26T11:59:51.506Z,49.99
2022-08-26T12:02:59.325Z,49.68
2022-08-26T12:06:05.595Z,48.76
2022-08-26T12:09:15.425Z,49.44
2022-08-26T12:12:25.072Z,49.79
2022-08-26T12:15:31.240Z,50.46
2022-08-26T12:18:40.285Z,50.30
2022-08-26T12:21:39.274Z,49.96
2022-08-26T12:24:48.361Z,49.81
2022-08-26T12:27:55.570Z,50.11
2022-08-26T12:31:09.469Z,50.33
2022-08-26T12:34:17.895Z,50.85
2022-08-26T12:37:24.244Z,51.27
2022-08-26T12:40:47.401Z,51.53
2022-08-26T12:43:58.268Z,51.68
2022-08-26T12:47:17.963Z,51.91
2022-08-26T12:50:24.596Z,52.14
2022-08-26T12:53:30.097Z,52.33
2022-08-26T12:56:44.363Z,52.48
2022-08-26T12:59:49.185Z,52.46
2022-08-26T13:03:09.543Z,52.75
2022-08-26T13:06:40.347Z,52.87
2022-08-26T13:10:04.402Z,53.06
2022-08-26T13:13:16.353Z,53.23
2022-08-26T13:16:36.485Z,53.36
2022-08-26T13:19:52.591Z,53.47
2022-08-26T13:22:53.859Z,53.63
2022-08-26T13:26:16.179Z,53.97
2022-08-26T13:29:28.676Z,54.26
2022-08-26T13:32:32.050Z,54.42
2022-08-26T13:35:36.191Z,54.57
2022-08-26T13:38:48.416Z,54.65
2022-08-26T13:42:05.405Z,54.59
2022-08-26T13:45:19.171Z,54.48
2022-08-26T13:48:23.329Z,54.27
2022-08-26T13:51:29.422Z,54.14
2022-08-26T13:54:36.397Z,53.93
2022-08-26T13:57:35.249Z,53.82
2022-08-26T14:00:40.233Z,53.61
2022-08-26T14:03:40.266Z,53.71
2022-08-26T14:06:39.918Z,53.57
2022-08-26T14:09:45.881Z,53.49
2022-08-26T14:12:54.696Z,53.33
2022-08-26T14:16:03.760Z,53.14
2022-08-26T14:19:01.572Z,53.18
2022-08-26T14:22:09.436Z,53.14
2022-08-26T14:25:21.410Z,53.14
2022-08-26T14:28:19.655Z,52.84
2022-08-26T14:31:19.496Z,53.01
2022-08-26T14:34:16.056Z,53.11
2022-08-26T14:37:15.138Z,52.86
2022-08-26T14:40:20.297Z,52.93
2022-08-26T14:43:28.279Z,52.92
2022-08-26T14:46:30.320Z,53.05
2022-08-26T14:49:34.117Z,52.81
2022-08-26T14:52:56.397Z,52.78
2022-08-26T14:56:02.172Z,52.49
2022-08-26T14:58:58.293Z,52.17
2022-08-26T15:01:58.477Z,51.80
2022-08-26T15:05:04.464Z,51.91
2022-08-26T15:08:08.509Z,51.61
2022-08-26T15:11:18.762Z,51.21
2022-08-26T15:14:32.954Z,51.11
2022-08-26T15:17:33.268Z,50.67
2022-08-26T15:20:48.473Z,50.19
2022-08-26T15:23:47.845Z,50.11
2022-08-26T15:26:47.215Z,50.05
2022-08-26T15:29:57.466Z,50.24
2022-08-26T15:32:57.431Z,50.15
2022-08-26T15:36:03.701Z,50.03
2022-08-26T15:38:59.157Z,49.97
2022-08-26T15:42:05.484Z,49.74
2022-08-26T15:45:08.626Z,50.07
2022-08-26T15:48:07.188Z,50.10
2022-08-26T15:51:09.940Z,49.92
2022-08-26T15:54:17.573Z,50.04
2022-08-26T15:57:19.793Z,49.87
2022-08-26T16:00:32.490Z,50.03
2022-08-26T16:03:33.367Z,50.17
2022-08-26T16:06:42.511Z,50.12
2022-08-26T16:09:38.722Z,49.94
2022-08-26T16:12:39.352Z,50.13
2022-08-26T16:15:41.725Z,50.20
2022-08-26T16:18:43.386Z,50.22
2022-08-26T16:21:39.464Z,50.27
2022-08-26T16:24:43.038Z,50.36
2022-08-26T16:27:55.333Z,50.43
2022-08-26T16:30:52.506Z,50.48
2022-08-26T16:34:08.078Z,50.30
2022-08-26T16:37:09.578Z,50.41
2022-08-26T16:40:23.536Z,50.40
2022-08-26T16:43:28.480Z,50.22
2022-08-26T16:46:39.702Z,50.36
2022-08-26T16:49:47.284Z,50.50
2022-08-26T16:53:03.738Z,50.37
2022-08-26T16:56:33.763Z,50.55
2022-08-26T16:59:39.780Z,50.35
2022-08-26T17:02:38.439Z,50.45
2022-08-26T17:05:44.773Z,50.72
2022-08-26T17:08:52.950Z,50.75
2022-08-26T17:12:02.506Z,50.60
2022-08-26T17:15:04.987Z,50.53
2022-08-26T17:18:12.488Z,50.60
2022-08-26T17:21:18.569Z,50.62
2022-08-26T17:24:18.615Z,50.69
2022-08-26T17:27:25.233Z,50.87
2022-08-26T17:30:30.994Z,51.01
2022-08-26T17:33:37.482Z,51.15
2022-08-26T17:36:41.797Z,51.32
2022-08-26T17:39:44.384Z,51.47
2022-08-26T17:42:45.429Z,51.51
2022-08-26T17:45:47.447Z,51.51
2022-08-26T17:48:56.205Z,51.69
2022-08-26T17:52:00.809Z,51.66
2022-08-26T17:55:05.773Z,51.83
2022-08-26T17:58:10.932Z,51.89
2022-08-26T18:01:16.086Z,52.05
2022-08-26T18:04:14.033Z,52.12
2022-08-26T18:07:27.050Z,52.15
2022-08-26T18:10:26.448Z,52.29
2022-08-26T18:13:35.829Z,52.35
2022-08-26T18:16:40.602Z,52.46
2022-08-26T18:19:40.528Z,52.56
2022-08-26T18:22:38.527Z,53.01
2022-08-26T18:25:38.953Z,53.36
2022-08-26T18:28:40.915Z,53.45
2022-08-26T18:31:46.377Z,53.30
2022-08-26T18:34:51.579Z,53.60
2022-08-26T18:37:48.551Z,53.69
2022-08-26T18:40:44.211Z,53.63
2022-08-26T18:44:01.595Z,53.40
2022-08-26T18:47:00.769Z,53.41
2022-08-26T18:50:06.607Z,53.45
2022-08-26T18:53:09.671Z,53.38
2022-08-26T18:56:15.419Z,53.40
2022-08-26T18:59:26.784Z,53.45
2022-08-26T19:02:38.290Z,53.52
2022-08-26T19:05:40.459Z,53.52
2022-08-26T19:08:49.804Z,53.52
2022-08-26T19:14:59.564Z,53.58
2022-08-26T19:18:06.615Z,53.70
2022-08-26T19:21:11.386Z,53.78
2022-08-26T19:24:12.022Z,53.89
2022-08-26T19:27:20.639Z,53.93
2022-08-26T19:30:32.680Z,53.95
2022-08-26T19:33:41.624Z,53.93
2022-08-26T19:36:47.226Z,53.89
2022-08-26T19:39:51.004Z,53.91
2022-08-26T19:43:05.790Z,53.90
2022-08-26T19:46:01.382Z,53.91
2022-08-26T19:49:02.179Z,53.94
2022-08-26T19:51:57.464Z,53.95
2022-08-26T19:54:56.759Z,54.03
2022-08-26T19:57:59.454Z,54.09
2022-08-26T20:01:02.638Z,54.20
2022-08-26T20:04:06.750Z,54.31
2022-08-26T20:07:08.935Z,54.44
2022-08-26T20:10:17.465Z,54.66
2022-08-26T20:13:27.688Z,54.70
2022-08-26T20:16:27.500Z,54.84
2022-08-26T20:19:45.996Z,55.04
2022-08-26T20:22:53.280Z,55.23
2022-08-26T20:25:57.705Z,55.53
2022-08-26T20:29:06.546Z,55.77
2022-08-26T20:32:09.373Z,55.86
2022-08-26T20:35:27.658Z,55.87
2022-08-26T20:38:33.743Z,55.81
2022-08-26T20:41:36.454Z,55.79
2022-08-26T20:44:54.525Z,55.76
2022-08-26T20:48:01.548Z,55.72
2022-08-26T20:51:05.712Z,55.60
2022-08-26T20:54:08.692Z,55.70
2022-08-26T20:57:11.648Z,55.72
2022-08-26T21:00:19.505Z,55.74
2022-08-26T21:03:40.716Z,55.75
2022-08-26T21:06:52.856Z,55.74
2022-08-26T21:10:00.943Z,55.76
2022-08-26T21:13:06.538Z,55.77
2022-08-26T21:16:08.683Z,55.81
2022-08-26T21:19:03.357Z,55.82
2022-08-26T21:22:12.714Z,55.83
2022-08-26T21:25:15.429Z,55.85
2022-08-26T21:28:11.534Z,55.90
2022-08-26T21:31:09.038Z,55.96
2022-08-26T21:34:04.233Z,55.96
2022-08-26T21:37:15.314Z,56.02
2022-08-26T21:40:14.848Z,56.00
2022-08-26T21:43:09.747Z,56.03
2022-08-26T21:46:20.250Z,56.03
2022-08-26T21:49:19.433Z,56.05
2022-08-26T21:52:22.263Z,56.10
2022-08-26T21:55:17.373Z,56.14
2022-08-26T21:58:16.588Z,56.17
2022-08-26T22:01:19.911Z,56.18
2022-08-26T22:04:21.708Z,56.15
2022-08-26T22:07:24.744Z,56.16
2022-08-26T22:10:18.299Z,56.19
2022-08-26T22:13:18.016Z,56.22
2022-08-26T22:16:19.786Z,56.22
2022-08-26T22:19:17.578Z,56.24
2022-08-26T22:22:13.472Z,56.24
2022-08-26T22:25:09.401Z,56.24
2022-08-26T22:28:07.369Z,56.24
2022-08-26T22:31:15.404Z,56.22
2022-08-26T22:34:11.772Z,56.21
2022-08-26T22:37:05.785Z,56.18
2022-08-26T22:40:02.770Z,56.13
2022-08-26T22:43:00.367Z,56.08
2022-08-26T22:46:00.807Z,56.08
2022-08-26T22:48:56.358Z,56.08
2022-08-26T22:51:49.217Z,56.03
2022-08-26T22:54:42.969Z,55.99
2022-08-26T22:57:38.307Z,55.94
2022-08-26T23:00:32.627Z,55.91
2022-08-26T23:03:27.225Z,55.86
2022-08-26T23:06:22.338Z,55.84
2022-08-26T23:09:19.033Z,55.83
2022-08-26T23:12:14.959Z,55.78
2022-08-26T23:15:14.104Z,55.73
2022-08-26T23:18:11.128Z,55.71
2022-08-26T23:21:07.855Z,55.70
2022-08-26T23:24:02.446Z,55.68
2022-08-26T23:26:55.597Z,55.67
2022-08-26T23:29:47.624Z,55.69
2022-08-26T23:32:42.017Z,55.71
2022-08-26T23:35:34.820Z,55.70
2022-08-26T23:38:26.491Z,55.71
2022-08-26T23:41:20.279Z,55.71
2022-08-26T23:44:15.060Z,55.69
2022-08-26T23:47:15.605Z,55.69
2022-08-26T23:50:10.707Z,55.69
2022-08-26T23:53:09.376Z,55.66
2022-08-26T23:56:03.288Z,55.64
2022-08-26T23:58:55.719Z,55.63
